createdAt,value
2023-04-24T00:01:08.801Z,99.90
2023-04-24T00:03:35.979Z,99.90
2023-04-24T00:06:03.724Z,99.90
2023-04-24T00:08:30.724Z,99.90
2023-04-24T00:10:57.644Z,99.90
2023-04-24T00:13:24.479Z,99.90
2023-04-24T00:15:51.509Z,99.90
2023-04-24T00:18:18.489Z,99.90
2023-04-24T00:20:45.423Z,99.90
2023-04-24T00:23:12.105Z,99.90
2023-04-24T00:25:39.025Z,99.90
2023-04-24T00:28:05.737Z,99.90
2023-04-24T00:30:32.978Z,99.90
2023-04-24T00:32:59.840Z,99.90
2023-04-24T00:35:26.542Z,99.90
2023-04-24T00:37:53.297Z,99.90
2023-04-24T00:40:20.083Z,99.90
2023-04-24T00:42:46.799Z,99.90
2023-04-24T00:45:14.444Z,99.90
2023-04-24T00:47:42.695Z,99.90
2023-04-24T00:50:10.137Z,99.90
2023-04-24T00:52:38.391Z,99.90
2023-04-24T00:55:06.615Z,99.90
2023-04-24T00:57:33.688Z,99.90
2023-04-24T01:00:00.474Z,99.90
2023-04-24T01:02:27.400Z,99.90
2023-04-24T01:04:54.436Z,99.90
2023-04-24T01:07:22.052Z,99.90
2023-04-24T01:09:52.317Z,99.90
2023-04-24T01:12:19.960Z,99.90
2023-04-24T01:14:47.271Z,99.90
2023-04-24T01:17:14.128Z,99.90
2023-04-24T01:19:41.566Z,99.90
2023-04-24T01:22:13.905Z,99.90
2023-04-24T01:24:41.389Z,99.90
2023-04-24T01:27:09.740Z,99.90
2023-04-24T01:29:37.340Z,99.90
2023-04-24T01:32:05.794Z,99.90
2023-04-24T01:34:32.980Z,99.90
2023-04-24T01:36:59.949Z,99.90
2023-04-24T01:39:29.318Z,99.90
2023-04-24T01:41:56.982Z,99.90
2023-04-24T01:44:24.617Z,99.90
2023-04-24T01:46:51.633Z,99.90
2023-04-24T01:49:18.884Z,99.90
2023-04-24T01:51:45.934Z,99.90
2023-04-24T01:54:13.261Z,99.90
2023-04-24T01:56:44.307Z,99.90
2023-04-24T01:59:12.563Z,99.90
2023-04-24T02:01:40.085Z,99.90
2023-04-24T02:04:08.752Z,99.90
2023-04-24T02:06:36.218Z,99.90
2023-04-24T02:09:04.482Z,99.90
2023-04-24T02:11:31.511Z,99.90
2023-04-24T02:13:58.779Z,99.90
2023-04-24T02:16:25.916Z,99.90
2023-04-24T02:18:52.700Z,99.90
2023-04-24T02:21:19.502Z,99.90
2023-04-24T02:23:46.251Z,99.90
2023-04-24T02:26:12.995Z,99.90
2023-04-24T02:28:39.940Z,99.90
2023-04-24T02:31:07.218Z,99.90
2023-04-24T02:33:34.346Z,99.90
2023-04-24T02:36:01.234Z,99.90
2023-04-24T02:38:28.081Z,99.90
2023-04-24T02:40:54.794Z,99.90
2023-04-24T02:43:21.925Z,99.90
2023-04-24T02:45:48.801Z,99.90
2023-04-24T02:48:16.074Z,99.90
2023-04-24T02:50:42.781Z,99.90
2023-04-24T02:53:09.648Z,99.90
2023-04-24T02:55:37.137Z,99.90
2023-04-24T02:58:04.003Z,99.90
2023-04-24T03:00:31.103Z,99.90
2023-04-24T03:02:58.077Z,99.90
2023-04-24T03:05:24.946Z,99.90
2023-04-24T03:07:53.662Z,99.90
2023-04-24T03:10:20.688Z,99.90
2023-04-24T03:12:47.745Z,99.90
2023-04-24T03:15:14.503Z,99.90
2023-04-24T03:17:41.160Z,99.90
2023-04-24T03:20:10.162Z,99.90
2023-04-24T03:22:36.947Z,99.90
2023-04-24T03:25:04.140Z,99.90
2023-04-24T03:27:31.674Z,99.90
2023-04-24T03:29:58.479Z,99.90
2023-04-24T03:32:25.220Z,99.90
2023-04-24T03:34:51.989Z,99.90
2023-04-24T03:37:18.747Z,99.90
2023-04-24T03:39:45.682Z,99.90
2023-04-24T03:42:12.536Z,99.90
2023-04-24T03:44:39.357Z,99.90
2023-04-24T03:47:06.143Z,99.90
2023-04-24T03:49:32.849Z,99.90
2023-04-24T03:51:59.551Z,99.90
2023-04-24T03:54:27.138Z,99.90
2023-04-24T03:56:54.310Z,99.90
2023-04-24T03:59:21.012Z,99.90
2023-04-24T04:01:47.877Z,99.90
2023-04-24T04:04:14.835Z,99.90
2023-04-24T04:06:41.813Z,99.90
2023-04-24T04:09:09.559Z,99.90
2023-04-24T04:11:36.519Z,99.90
2023-04-24T04:14:03.750Z,99.90
2023-04-24T04:16:30.929Z,99.90
2023-04-24T04:18:58.073Z,99.90
2023-04-24T04:21:25.037Z,99.90
2023-04-24T04:23:51.732Z,99.90
2023-04-24T04:26:20.119Z,99.90
2023-04-24T04:28:48.663Z,99.90
2023-04-24T04:31:15.376Z,99.90
2023-04-24T04:33:42.286Z,99.90
2023-04-24T04:36:09.754Z,99.90
2023-04-24T04:38:36.526Z,99.90
2023-04-24T04:41:03.939Z,99.90
2023-04-24T04:43:31.876Z,99.90
2023-04-24T04:45:59.210Z,99.90
2023-04-24T04:48:26.151Z,99.90
2023-04-24T04:50:52.871Z,99.90
2023-04-24T04:53:19.528Z,99.90
2023-04-24T04:55:47.439Z,99.90
2023-04-24T04:58:14.108Z,99.90
2023-04-24T05:00:40.887Z,99.90
2023-04-24T05:03:20.202Z,99.90
2023-04-24T05:05:48.308Z,99.90
2023-04-24T05:10:44.936Z,99.90
2023-04-24T05:13:13.943Z,99.90
2023-04-24T05:15:41.028Z,99.90
2023-04-24T05:18:07.871Z,99.90
2023-04-24T05:20:34.788Z,99.90
2023-04-24T05:23:01.582Z,99.90
2023-04-24T05:25:28.414Z,99.90
2023-04-24T05:27:55.123Z,99.90
2023-04-24T05:30:21.941Z,99.90
2023-04-24T05:32:48.807Z,99.90
2023-04-24T05:35:15.736Z,99.90
2023-04-24T05:37:42.700Z,99.90
2023-04-24T05:40:10.095Z,99.90
2023-04-24T05:42:36.810Z,99.90
2023-04-24T05:45:04.631Z,99.90
2023-04-24T05:47:31.376Z,99.90
2023-04-24T05:49:58.105Z,99.90
2023-04-24T05:52:24.869Z,99.90
2023-04-24T05:54:51.700Z,99.90
2023-04-24T05:57:18.385Z,99.90
2023-04-24T05:59:45.151Z,99.90
2023-04-24T06:02:12.040Z,99.90
2023-04-24T06:04:39.052Z,99.90
2023-04-24T06:07:06.284Z,99.90
2023-04-24T06:09:32.916Z,99.90
2023-04-24T06:12:00.927Z,99.90
2023-04-24T06:14:27.754Z,99.90
2023-04-24T06:16:54.829Z,99.90
2023-04-24T06:19:21.565Z,99.90
2023-04-24T06:21:48.402Z,99.90
2023-04-24T06:24:17.030Z,99.90
2023-04-24T06:26:43.936Z,99.90
2023-04-24T06:29:10.852Z,99.90
2023-04-24T06:31:38.075Z,99.90
2023-04-24T06:34:05.226Z,99.90
2023-04-24T06:36:32.324Z,99.90
2023-04-24T06:38:59.252Z,99.90
2023-04-24T06:41:26.131Z,99.90
2023-04-24T06:43:52.921Z,99.90
2023-04-24T06:46:19.662Z,99.90
2023-04-24T06:48:46.646Z,99.90
2023-04-24T06:51:13.350Z,99.90
2023-04-24T06:53:40.085Z,99.90
2023-04-24T06:56:06.866Z,99.90
2023-04-24T06:58:33.823Z,99.90
2023-04-24T07:01:00.591Z,99.90
2023-04-24T07:03:27.483Z,99.90
2023-04-24T07:05:55.797Z,99.90
2023-04-24T07:08:23.089Z,99.90
2023-04-24T07:10:51.650Z,99.90
2023-04-24T07:13:18.570Z,99.90
2023-04-24T07:15:45.391Z,99.90
2023-04-24T07:18:12.170Z,99.90
2023-04-24T07:20:39.217Z,99.90
2023-04-24T07:23:05.895Z,99.90
2023-04-24T07:25:32.776Z,99.90
2023-04-24T07:27:59.862Z,99.90
2023-04-24T07:30:26.895Z,99.90
2023-04-24T07:32:53.631Z,99.90
2023-04-24T07:35:21.290Z,99.90
2023-04-24T07:37:48.373Z,99.90
2023-04-24T07:40:15.170Z,99.90
2023-04-24T07:42:42.585Z,99.90
2023-04-24T07:45:09.327Z,99.90
2023-04-24T07:47:37.453Z,99.90
2023-04-24T07:50:04.625Z,99.90
2023-04-24T07:52:31.491Z,99.90
2023-04-24T07:54:59.442Z,99.90
2023-04-24T07:57:26.913Z,99.90
2023-04-24T07:59:53.752Z,99.90
2023-04-24T08:02:21.016Z,99.90
2023-04-24T08:04:48.237Z,99.90
2023-04-24T08:07:15.294Z,99.90
2023-04-24T08:09:42.120Z,99.90
2023-04-24T08:12:09.040Z,99.90
2023-04-24T08:14:36.121Z,99.90
2023-04-24T08:17:04.274Z,99.90
2023-04-24T08:19:31.353Z,99.90
2023-04-24T08:21:58.082Z,99.90
2023-04-24T08:24:24.889Z,99.90
2023-04-24T08:26:52.809Z,99.90
2023-04-24T08:29:19.495Z,99.90
2023-04-24T08:31:46.257Z,99.90
2023-04-24T08:34:13.056Z,99.90
2023-04-24T08:36:47.220Z,99.90
2023-04-24T08:39:15.297Z,99.90
2023-04-24T08:41:46.703Z,99.90
2023-04-24T08:44:16.700Z,99.90
2023-04-24T08:46:48.646Z,99.90
2023-04-24T08:49:19.336Z,99.90
2023-04-24T08:51:48.265Z,99.90
2023-04-24T08:54:15.204Z,99.90
2023-04-24T08:56:45.905Z,99.90
2023-04-24T08:59:13.549Z,99.90
2023-04-24T09:01:41.578Z,99.90
2023-04-24T09:04:14.393Z,99.90
2023-04-24T09:06:42.809Z,99.90
2023-04-24T09:09:11.068Z,99.90
2023-04-24T09:11:38.291Z,99.90
2023-04-24T09:14:05.500Z,99.90
2023-04-24T09:16:36.531Z,99.90
2023-04-24T09:19:04.450Z,99.90
2023-04-24T09:21:35.337Z,99.90
2023-04-24T09:24:08.088Z,99.90
2023-04-24T09:26:37.232Z,99.90
2023-04-24T09:29:05.959Z,99.90
2023-04-24T09:31:33.610Z,99.90
2023-04-24T09:34:09.104Z,99.90
2023-04-24T09:36:39.990Z,99.90
2023-04-24T09:39:14.675Z,99.90
2023-04-24T09:41:53.928Z,99.90
2023-04-24T09:44:25.675Z,99.90
2023-04-24T09:46:57.737Z,99.90
2023-04-24T09:49:26.126Z,99.90
2023-04-24T09:51:53.084Z,99.90
2023-04-24T09:54:22.600Z,99.90
2023-04-24T09:56:51.186Z,99.90
2023-04-24T09:59:19.859Z,99.90
2023-04-24T10:01:46.951Z,99.90
2023-04-24T10:04:21.690Z,99.90
2023-04-24T10:06:49.980Z,99.90
2023-04-24T10:09:19.000Z,99.90
2023-04-24T10:11:47.889Z,99.90
2023-04-24T10:14:20.050Z,99.90
2023-04-24T10:16:47.936Z,99.90
2023-04-24T10:19:16.644Z,99.90
2023-04-24T10:21:47.731Z,99.90
2023-04-24T10:24:19.375Z,99.90
2023-04-24T10:26:49.204Z,99.90
2023-04-24T10:29:20.681Z,99.90
2023-04-24T10:31:47.956Z,99.90
2023-04-24T10:34:16.933Z,99.90
2023-04-24T10:36:49.066Z,99.90
2023-04-24T10:39:17.276Z,99.90
2023-04-24T10:41:44.208Z,99.90
2023-04-24T10:44:12.905Z,99.90
2023-04-24T10:46:43.516Z,99.90
2023-04-24T10:49:10.496Z,99.90
2023-04-24T10:51:51.868Z,99.90
2023-04-24T10:54:26.874Z,99.90
2023-04-24T10:56:54.473Z,99.90
2023-04-24T10:59:36.374Z,99.90
2023-04-24T11:02:03.494Z,99.90
2023-04-24T11:04:32.623Z,99.90
2023-04-24T11:06:59.550Z,99.90
2023-04-24T11:09:32.382Z,99.90
2023-04-24T11:12:11.730Z,99.90
2023-04-24T11:14:57.594Z,99.90
2023-04-24T11:17:39.198Z,99.90
2023-04-24T11:20:26.804Z,99.90
2023-04-24T11:22:56.403Z,99.90
2023-04-24T11:25:23.923Z,99.90
2023-04-24T11:27:51.317Z,99.80
2023-04-24T11:30:20.332Z,99.10
2023-04-24T11:32:52.528Z,98.30
2023-04-24T11:35:25.901Z,99.40
2023-04-24T11:38:18.653Z,99.90
2023-04-24T11:40:41.584Z,98.70
2023-04-24T11:43:10.515Z,98.30
2023-04-24T11:45:37.204Z,99.00
2023-04-24T11:48:04.704Z,98.50
2023-04-24T11:50:31.808Z,98.30
2023-04-24T11:52:58.743Z,98.20
2023-04-24T11:55:27.860Z,96.70
2023-04-24T11:58:00.574Z,97.40
2023-04-24T12:00:32.406Z,98.10
2023-04-24T12:03:10.676Z,97.40
2023-04-24T12:05:38.198Z,96.20
2023-04-24T12:08:05.963Z,95.90
2023-04-24T12:10:34.129Z,97.10
2023-04-24T12:13:01.355Z,97.10
2023-04-24T12:15:28.930Z,96.40
2023-04-24T12:17:57.112Z,95.40
2023-04-24T12:20:30.386Z,95.90
2023-04-24T12:22:58.855Z,94.80
2023-04-24T12:25:27.763Z,94.50
2023-04-24T12:27:56.493Z,94.00
2023-04-24T12:30:29.803Z,93.60
2023-04-24T12:32:59.230Z,93.20
2023-04-24T12:35:30.789Z,92.90
2023-04-24T12:38:05.926Z,90.70
2023-04-24T12:40:32.929Z,90.40
2023-04-24T12:42:59.786Z,88.80
2023-04-24T12:45:28.834Z,90.40
2023-04-24T12:47:56.010Z,91.10
2023-04-24T12:50:22.839Z,91.50
2023-04-24T12:52:49.519Z,81.60
2023-04-24T12:55:16.351Z,85.60
2023-04-24T12:57:43.169Z,81.40
2023-04-24T13:00:10.970Z,84.10
2023-04-24T13:02:38.293Z,87.30
2023-04-24T13:05:05.684Z,86.20
2023-04-24T13:07:32.444Z,81.50
2023-04-24T13:09:59.519Z,79.70
2023-04-24T13:12:26.693Z,76.00
2023-04-24T13:14:54.483Z,70.20
2023-04-24T13:17:21.522Z,68.00
2023-04-24T13:19:51.912Z,63.00
2023-04-24T13:22:22.028Z,62.50
2023-04-24T13:24:49.899Z,60.30
2023-04-24T13:27:17.279Z,56.60
2023-04-24T13:29:43.999Z,53.90
2023-04-24T13:32:11.283Z,53.10
2023-04-24T13:34:38.182Z,48.10
2023-04-24T13:37:05.883Z,49.70
2023-04-24T13:39:32.898Z,48.70
2023-04-24T13:42:00.000Z,46.60
2023-04-24T13:44:27.803Z,46.30
2023-04-24T13:46:57.693Z,40.10
2023-04-24T13:49:28.133Z,42.90
2023-04-24T13:51:56.228Z,36.80
2023-04-24T13:54:24.430Z,31.80
2023-04-24T13:56:51.843Z,33.80
2023-04-24T13:59:18.766Z,35.80
2023-04-24T14:01:46.229Z,34.00
2023-04-24T14:04:13.259Z,35.30
2023-04-24T14:06:40.357Z,34.90
2023-04-24T14:09:07.909Z,31.00
2023-04-24T14:11:35.348Z,34.50
2023-04-24T14:14:02.131Z,35.90
2023-04-24T14:16:29.708Z,35.10
2023-04-24T14:18:57.178Z,34.70
2023-04-24T14:21:23.932Z,33.80
2023-04-24T14:23:51.192Z,35.20
2023-04-24T14:26:18.035Z,36.10
2023-04-24T14:28:44.722Z,36.80
2023-04-24T14:31:11.537Z,34.60
2023-04-24T14:33:38.285Z,33.50
2023-04-24T14:36:06.574Z,33.20
2023-04-24T14:38:33.669Z,33.20
2023-04-24T14:43:30.093Z,34.80
2023-04-24T14:45:56.805Z,36.00
2023-04-24T14:48:23.478Z,36.00
2023-04-24T14:50:50.214Z,37.00
2023-04-24T14:53:17.360Z,37.70
2023-04-24T14:55:44.051Z,36.00
2023-04-24T14:58:10.839Z,37.30
2023-04-24T15:00:37.839Z,37.80
2023-04-24T15:03:05.166Z,39.50
2023-04-24T15:05:32.493Z,38.70
2023-04-24T15:07:59.405Z,36.50
2023-04-24T15:10:26.585Z,38.20
2023-04-24T15:12:53.402Z,35.80
2023-04-24T15:15:20.286Z,35.50
2023-04-24T15:17:47.217Z,35.20
2023-04-24T15:20:14.074Z,36.50
2023-04-24T15:22:40.880Z,37.10
2023-04-24T15:25:08.104Z,35.80
2023-04-24T15:27:47.291Z,34.40
2023-04-24T15:30:15.242Z,34.30
2023-04-24T15:32:42.096Z,35.60
2023-04-24T15:35:10.659Z,33.90
2023-04-24T15:37:39.068Z,33.80
2023-04-24T15:40:08.378Z,31.60
2023-04-24T15:42:36.193Z,31.00
2023-04-24T15:45:04.383Z,31.70
2023-04-24T15:47:31.366Z,32.40
2023-04-24T15:49:58.803Z,32.80
2023-04-24T15:52:25.822Z,32.50
2023-04-24T15:54:52.687Z,33.20
2023-04-24T15:57:19.631Z,35.00
2023-04-24T15:59:46.530Z,36.10
2023-04-24T16:02:21.347Z,37.70
2023-04-24T16:04:49.785Z,37.00
2023-04-24T16:07:20.417Z,38.00
2023-04-24T16:09:47.211Z,39.00
2023-04-24T16:12:14.568Z,40.00
2023-04-24T16:14:41.291Z,39.90
2023-04-24T16:17:07.998Z,36.40
2023-04-24T16:19:35.140Z,35.10
2023-04-24T16:22:03.238Z,36.70
2023-04-24T16:24:30.398Z,38.20
2023-04-24T16:26:57.326Z,36.60
2023-04-24T16:29:24.138Z,36.90
2023-04-24T16:31:51.023Z,37.40
2023-04-24T16:34:17.780Z,35.40
2023-04-24T16:36:44.538Z,36.10
2023-04-24T16:39:11.344Z,36.20
2023-04-24T16:41:38.173Z,36.40
2023-04-24T16:44:05.284Z,36.70
2023-04-24T16:46:32.091Z,36.20
2023-04-24T16:48:58.946Z,36.40
2023-04-24T16:51:26.597Z,36.60
2023-04-24T16:53:53.350Z,36.70
2023-04-24T16:56:20.089Z,37.10
2023-04-24T16:58:46.994Z,37.90
2023-04-24T17:01:13.887Z,38.40
2023-04-24T17:03:41.257Z,38.70
2023-04-24T17:06:08.700Z,38.50
2023-04-24T17:08:35.883Z,38.80
2023-04-24T17:11:02.737Z,39.40
2023-04-24T17:13:29.488Z,40.00
2023-04-24T17:15:56.239Z,40.30
2023-04-24T17:18:22.996Z,40.60
2023-04-24T17:20:51.321Z,40.10
2023-04-24T17:23:18.300Z,40.40
2023-04-24T17:25:44.987Z,39.70
2023-04-24T17:28:29.988Z,39.70
2023-04-24T17:31:00.410Z,40.20
2023-04-24T17:33:28.169Z,40.60
2023-04-24T17:35:56.150Z,40.30
2023-04-24T17:38:22.978Z,40.10
2023-04-24T17:40:53.274Z,40.60
2023-04-24T17:43:21.131Z,40.90
2023-04-24T17:45:53.401Z,41.40
2023-04-24T17:48:20.197Z,41.50
2023-04-24T17:50:46.935Z,41.20
2023-04-24T17:53:13.922Z,41.30
2023-04-24T17:55:43.416Z,41.90
2023-04-24T17:58:10.508Z,42.50
2023-04-24T18:00:37.396Z,42.10
2023-04-24T18:03:05.814Z,41.70
2023-04-24T18:05:37.169Z,41.50
2023-04-24T18:08:04.673Z,41.80
2023-04-24T18:10:33.071Z,42.40
2023-04-24T18:13:00.165Z,43.10
2023-04-24T18:15:26.994Z,43.50
2023-04-24T18:17:53.734Z,46.50
2023-04-24T18:20:21.255Z,49.00
2023-04-24T18:22:48.285Z,51.70
2023-04-24T18:25:15.556Z,51.40
2023-04-24T18:27:42.916Z,52.40
2023-04-24T18:30:14.204Z,52.70
2023-04-24T18:32:41.794Z,53.00
2023-04-24T18:35:09.315Z,53.30
2023-04-24T18:37:36.106Z,56.50
2023-04-24T18:40:03.635Z,58.50
2023-04-24T18:42:30.570Z,55.90
2023-04-24T18:45:01.288Z,57.60
2023-04-24T18:47:28.740Z,59.60
2023-04-24T18:49:55.758Z,59.10
2023-04-24T18:52:24.155Z,58.60
2023-04-24T18:54:51.065Z,56.30
2023-04-24T18:57:18.346Z,56.20
2023-04-24T18:59:45.297Z,56.60
2023-04-24T19:02:12.203Z,57.80
2023-04-24T19:04:39.150Z,58.30
2023-04-24T19:07:05.948Z,59.20
2023-04-24T19:09:32.612Z,59.50
2023-04-24T19:12:01.676Z,59.90
2023-04-24T19:14:28.716Z,61.80
2023-04-24T19:16:55.561Z,61.80
2023-04-24T19:19:23.828Z,63.30
2023-04-24T19:21:50.668Z,64.50
2023-04-24T19:24:19.002Z,65.00
2023-04-24T19:26:46.508Z,68.70
2023-04-24T19:29:13.445Z,70.10
2023-04-24T19:31:40.271Z,73.30
2023-04-24T19:34:07.000Z,74.50
2023-04-24T19:36:33.891Z,73.20
2023-04-24T19:39:00.986Z,74.40
2023-04-24T19:41:27.687Z,75.40
2023-04-24T19:43:54.477Z,77.30
2023-04-24T19:46:21.315Z,78.80
2023-04-24T19:48:48.490Z,81.30
2023-04-24T19:51:16.082Z,85.90
2023-04-24T19:53:43.422Z,84.70
2023-04-24T19:56:10.555Z,83.30
2023-04-24T19:58:37.316Z,87.70
2023-04-24T20:01:05.912Z,89.90
2023-04-24T20:03:34.312Z,88.70
2023-04-24T20:06:01.891Z,86.60
2023-04-24T20:08:28.654Z,87.80
2023-04-24T20:10:58.119Z,89.20
2023-04-24T20:13:27.560Z,89.10
2023-04-24T20:15:54.323Z,89.60
2023-04-24T20:18:21.439Z,91.00
2023-04-24T20:20:48.215Z,89.60
2023-04-24T20:23:15.014Z,90.00
2023-04-24T20:25:41.907Z,90.00
2023-04-24T20:28:08.670Z,90.60
2023-04-24T20:30:35.767Z,91.10
2023-04-24T20:33:03.460Z,91.50
2023-04-24T20:35:30.445Z,90.90
2023-04-24T20:37:57.322Z,92.50
2023-04-24T20:40:24.155Z,92.60
2023-04-24T20:42:51.215Z,92.70
2023-04-24T20:45:18.034Z,90.70
2023-04-24T20:47:44.950Z,90.50
2023-04-24T20:50:11.996Z,89.60
2023-04-24T20:52:38.729Z,89.00
2023-04-24T20:55:06.824Z,87.80
2023-04-24T20:57:33.673Z,86.90
2023-04-24T21:00:00.478Z,87.40
2023-04-24T21:02:27.383Z,88.40
2023-04-24T21:04:54.138Z,88.50
2023-04-24T21:07:20.899Z,90.00
2023-04-24T21:09:47.825Z,91.30
2023-04-24T21:12:14.536Z,92.10
2023-04-24T21:14:41.284Z,92.90
2023-04-24T21:17:08.124Z,95.00
2023-04-24T21:19:34.911Z,99.30
2023-04-24T21:22:01.609Z,99.90
2023-04-24T21:24:28.444Z,99.90
2023-04-24T21:26:55.226Z,99.90
2023-04-24T21:29:22.195Z,99.90
2023-04-24T21:31:49.078Z,99.90
2023-04-24T21:34:16.013Z,99.90
2023-04-24T21:36:42.667Z,99.90
2023-04-24T21:39:09.352Z,99.90
2023-04-24T21:41:36.030Z,99.90
2023-04-24T21:44:02.729Z,99.90
2023-04-24T21:46:29.542Z,99.90
2023-04-24T21:48:56.282Z,99.90
2023-04-24T21:51:23.056Z,99.90
2023-04-24T21:53:50.317Z,99.90
2023-04-24T21:56:17.505Z,99.90
2023-04-24T21:58:45.229Z,99.90
2023-04-24T22:01:12.158Z,99.90
2023-04-24T22:03:39.139Z,99.90
2023-04-24T22:06:06.136Z,99.90
2023-04-24T22:08:32.988Z,99.90
2023-04-24T22:10:59.986Z,99.90
2023-04-24T22:13:27.669Z,99.90
2023-04-24T22:15:54.727Z,99.90
2023-04-24T22:18:24.557Z,99.90
2023-04-24T22:20:53.020Z,99.90
2023-04-24T22:23:20.567Z,99.90
2023-04-24T22:25:47.305Z,99.90
2023-04-24T22:28:13.917Z,99.90
2023-04-24T22:30:41.308Z,99.90
2023-04-24T22:33:08.449Z,99.90
2023-04-24T22:35:37.228Z,99.90
2023-04-24T22:38:03.912Z,99.90
2023-04-24T22:40:31.246Z,99.90
2023-04-24T22:42:57.916Z,99.90
2023-04-24T22:45:24.705Z,99.90
2023-04-24T22:47:51.531Z,99.90
2023-04-24T22:50:20.354Z,99.90
2023-04-24T22:52:47.681Z,99.90
2023-04-24T22:55:14.332Z,99.90
2023-04-24T22:57:41.268Z,99.90
2023-04-24T23:00:11.479Z,99.90
2023-04-24T23:02:40.565Z,99.90
2023-04-24T23:05:08.682Z,99.90
2023-04-24T23:07:37.650Z,99.90
2023-04-24T23:10:05.952Z,99.90
2023-04-24T23:12:32.790Z,99.90
2023-04-24T23:15:01.097Z,99.90
2023-04-24T23:17:27.796Z,99.90
2023-04-24T23:19:54.617Z,99.90
2023-04-24T23:22:21.709Z,99.90
2023-04-24T23:24:48.357Z,99.90
2023-04-24T23:27:15.232Z,99.90
2023-04-24T23:29:42.026Z,99.90
2023-04-24T23:32:08.809Z,99.90
2023-04-24T23:34:38.047Z,99.90
2023-04-24T23:37:06.162Z,99.90
2023-04-24T23:39:33.131Z,99.90
2023-04-24T23:42:02.902Z,99.90
2023-04-24T23:44:30.395Z,99.90
2023-04-24T23:46:57.469Z,99.90
2023-04-24T23:49:24.312Z,99.90
2023-04-24T23:51:52.173Z,99.90
2023-04-24T23:54:19.365Z,99.90
2023-04-24T23:56:47.847Z,99.90
2023-04-24T23:59:15.216Z,99.90
